sensor_id;sensor_type;location;lat;lon;timestamp;P1;durP1;ratioP1;P2;durP2;ratioP2
38053;SDS011;23859;50.672;7.164;2023-04-28T00:01:09;6.57;;;3.60;;
38053;SDS011;23859;50.672;7.164;2023-04-28T00:03:36;11.05;;;4.03;;
38053;SDS011;23859;50.672;7.164;2023-04-28T00:06:02;10.85;;;4.85;;
38053;SDS011;23859;50.672;7.164;2023-04-28T00:08:28;11.50;;;4.47;;
38053;SDS011;23859;50.672;7.164;2023-04-28T00:10:54;11.27;;;4.18;;
38053;SDS011;23859;50.672;7.164;2023-04-28T00:13:20;6.68;;;3.97;;
38053;SDS011;23859;50.672;7.164;2023-04-28T00:15:46;6.70;;;3.85;;
38053;SDS011;23859;50.672;7.164;2023-04-28T00:18:13;10.15;;;4.18;;
38053;SDS011;23859;50.672;7.164;2023-04-28T00:20:39;7.40;;;4.32;;
38053;SDS011;23859;50.672;7.164;2023-04-28T00:23:05;10.35;;;4.25;;
38053;SDS011;23859;50.672;7.164;2023-04-28T00:25:31;11.68;;;3.60;;
38053;SDS011;23859;50.672;7.164;2023-04-28T00:27:57;8.90;;;4.03;;
38053;SDS011;23859;50.672;7.164;2023-04-28T00:30:23;12.00;;;3.55;;
38053;SDS011;23859;50.672;7.164;2023-04-28T00:32:49;7.97;;;4.13;;
38053;SDS011;23859;50.672;7.164;2023-04-28T00:35:16;12.77;;;4.07;;
38053;SDS011;23859;50.672;7.164;2023-04-28T00:37:42;7.07;;;5.00;;
38053;SDS011;23859;50.672;7.164;2023-04-28T00:40:08;8.63;;;4.28;;
38053;SDS011;23859;50.672;7.164;2023-04-28T00:42:35;10.07;;;4.85;;
38053;SDS011;23859;50.672;7.164;2023-04-28T00:45:01;8.82;;;5.30;;
38053;SDS011;23859;50.672;7.164;2023-04-28T00:47:30;8.15;;;4.43;;
38053;SDS011;23859;50.672;7.164;2023-04-28T00:49:58;12.65;;;5.60;;
38053;SDS011;23859;50.672;7.164;2023-04-28T00:52:25;12.13;;;5.45;;
38053;SDS011;23859;50.672;7.164;2023-04-28T00:54:52;12.10;;;5.78;;
38053;SDS011;23859;50.672;7.164;2023-04-28T00:57:19;10.63;;;5.40;;
38053;SDS011;23859;50.672;7.164;2023-04-28T00:59:45;9.15;;;5.65;;
38053;SDS011;23859;50.672;7.164;2023-04-28T01:02:11;14.48;;;5.80;;
38053;SDS011;23859;50.672;7.164;2023-04-28T01:04:42;7.65;;;5.20;;
38053;SDS011;23859;50.672;7.164;2023-04-28T01:07:09;11.80;;;5.47;;
38053;SDS011;23859;50.672;7.164;2023-04-28T01:09:36;10.63;;;6.05;;
38053;SDS011;23859;50.672;7.164;2023-04-28T01:12:02;11.45;;;6.05;;
38053;SDS011;23859;50.672;7.164;2023-04-28T01:14:29;11.77;;;5.88;;
38053;SDS011;23859;50.672;7.164;2023-04-28T01:16:56;11.40;;;6.30;;
38053;SDS011;23859;50.672;7.164;2023-04-28T01:19:22;10.43;;;6.18;;
38053;SDS011;23859;50.672;7.164;2023-04-28T01:21:48;14.30;;;6.22;;
38053;SDS011;23859;50.672;7.164;2023-04-28T01:24:15;10.23;;;5.97;;
38053;SDS011;23859;50.672;7.164;2023-04-28T01:26:41;7.75;;;6.28;;
38053;SDS011;23859;50.672;7.164;2023-04-28T01:29:08;8.57;;;5.65;;
38053;SDS011;23859;50.672;7.164;2023-04-28T01:31:34;9.32;;;5.45;;
38053;SDS011;23859;50.672;7.164;2023-04-28T01:34:00;13.65;;;5.18;;
38053;SDS011;23859;50.672;7.164;2023-04-28T01:36:27;11.93;;;5.40;;
38053;SDS011;23859;50.672;7.164;2023-04-28T01:38:53;12.13;;;5.72;;
38053;SDS011;23859;50.672;7.164;2023-04-28T01:41:19;7.60;;;5.47;;
38053;SDS011;23859;50.672;7.164;2023-04-28T01:43:46;9.27;;;5.78;;
38053;SDS011;23859;50.672;7.164;2023-04-28T01:46:12;6.95;;;5.25;;
38053;SDS011;23859;50.672;7.164;2023-04-28T01:48:38;9.73;;;5.47;;
38053;SDS011;23859;50.672;7.164;2023-04-28T01:51:05;9.85;;;5.88;;
38053;SDS011;23859;50.672;7.164;2023-04-28T01:53:31;10.95;;;6.75;;
38053;SDS011;23859;50.672;7.164;2023-04-28T01:55:58;11.45;;;6.90;;
38053;SDS011;23859;50.672;7.164;2023-04-28T01:58:24;12.40;;;7.15;;
38053;SDS011;23859;50.672;7.164;2023-04-28T02:00:50;14.35;;;6.63;;
38053;SDS011;23859;50.672;7.164;2023-04-28T02:03:16;12.27;;;7.60;;
38053;SDS011;23859;50.672;7.164;2023-04-28T02:05:42;15.77;;;7.60;;
38053;SDS011;23859;50.672;7.164;2023-04-28T02:08:09;15.32;;;8.00;;
38053;SDS011;23859;50.672;7.164;2023-04-28T02:10:35;10.98;;;7.63;;
38053;SDS011;23859;50.672;7.164;2023-04-28T02:13:01;14.90;;;7.70;;
38053;SDS011;23859;50.672;7.164;2023-04-28T02:15:27;12.65;;;7.07;;
38053;SDS011;23859;50.672;7.164;2023-04-28T02:17:53;14.82;;;7.55;;
38053;SDS011;23859;50.672;7.164;2023-04-28T02:20:19;12.15;;;7.57;;
38053;SDS011;23859;50.672;7.164;2023-04-28T02:22:45;13.32;;;7.45;;
38053;SDS011;23859;50.672;7.164;2023-04-28T02:25:11;12.75;;;7.63;;
38053;SDS011;23859;50.672;7.164;2023-04-28T02:27:37;17.33;;;8.52;;
38053;SDS011;23859;50.672;7.164;2023-04-28T02:30:04;17.40;;;7.97;;
38053;SDS011;23859;50.672;7.164;2023-04-28T02:32:30;14.50;;;7.80;;
38053;SDS011;23859;50.672;7.164;2023-04-28T02:34:56;13.68;;;7.35;;
38053;SDS011;23859;50.672;7.164;2023-04-28T02:37:23;12.57;;;7.03;;
38053;SDS011;23859;50.672;7.164;2023-04-28T02:39:49;16.83;;;7.80;;
38053;SDS011;23859;50.672;7.164;2023-04-28T02:42:15;11.05;;;7.32;;
38053;SDS011;23859;50.672;7.164;2023-04-28T02:44:41;13.35;;;8.02;;
38053;SDS011;23859;50.672;7.164;2023-04-28T02:47:07;17.67;;;7.70;;
38053;SDS011;23859;50.672;7.164;2023-04-28T02:49:33;12.57;;;8.13;;
38053;SDS011;23859;50.672;7.164;2023-04-28T02:51:59;16.00;;;8.38;;
38053;SDS011;23859;50.672;7.164;2023-04-28T02:54:25;14.02;;;9.38;;
38053;SDS011;23859;50.672;7.164;2023-04-28T02:56:54;13.88;;;8.07;;
38053;SDS011;23859;50.672;7.164;2023-04-28T02:59:22;13.52;;;8.30;;
38053;SDS011;23859;50.672;7.164;2023-04-28T03:01:49;16.75;;;9.82;;
38053;SDS011;23859;50.672;7.164;2023-04-28T03:04:16;16.10;;;9.02;;
38053;SDS011;23859;50.672;7.164;2023-04-28T03:06:42;13.60;;;7.80;;
38053;SDS011;23859;50.672;7.164;2023-04-28T03:09:08;13.02;;;8.45;;
38053;SDS011;23859;50.672;7.164;2023-04-28T03:11:35;14.93;;;9.82;;
38053;SDS011;23859;50.672;7.164;2023-04-28T03:14:01;19.25;;;9.27;;
38053;SDS011;23859;50.672;7.164;2023-04-28T03:16:27;14.43;;;9.38;;
38053;SDS011;23859;50.672;7.164;2023-04-28T03:18:53;12.73;;;8.80;;
38053;SDS011;23859;50.672;7.164;2023-04-28T03:21:19;18.27;;;9.25;;
38053;SDS011;23859;50.672;7.164;2023-04-28T03:23:45;20.13;;;9.77;;
38053;SDS011;23859;50.672;7.164;2023-04-28T03:26:11;13.55;;;9.27;;
38053;SDS011;23859;50.672;7.164;2023-04-28T03:28:37;14.85;;;10.07;;
38053;SDS011;23859;50.672;7.164;2023-04-28T03:31:03;16.58;;;10.52;;
38053;SDS011;23859;50.672;7.164;2023-04-28T03:33:29;20.65;;;12.23;;
38053;SDS011;23859;50.672;7.164;2023-04-28T03:35:55;18.00;;;11.63;;
38053;SDS011;23859;50.672;7.164;2023-04-28T03:38:21;17.92;;;11.07;;
38053;SDS011;23859;50.672;7.164;2023-04-28T03:40:48;16.92;;;11.05;;
38053;SDS011;23859;50.672;7.164;2023-04-28T03:43:14;15.32;;;10.93;;
38053;SDS011;23859;50.672;7.164;2023-04-28T03:45:40;17.77;;;11.25;;
38053;SDS011;23859;50.672;7.164;2023-04-28T03:48:06;21.48;;;11.70;;
38053;SDS011;23859;50.672;7.164;2023-04-28T03:50:32;16.38;;;10.98;;
38053;SDS011;23859;50.672;7.164;2023-04-28T03:52:58;17.02;;;10.15;;
38053;SDS011;23859;50.672;7.164;2023-04-28T03:55:25;15.85;;;11.25;;
38053;SDS011;23859;50.672;7.164;2023-04-28T03:57:51;18.15;;;10.30;;
38053;SDS011;23859;50.672;7.164;2023-04-28T04:00:17;13.95;;;9.85;;
38053;SDS011;23859;50.672;7.164;2023-04-28T04:02:43;16.92;;;11.18;;
38053;SDS011;23859;50.672;7.164;2023-04-28T04:05:09;13.68;;;10.38;;
38053;SDS011;23859;50.672;7.164;2023-04-28T04:07:35;13.13;;;10.48;;
38053;SDS011;23859;50.672;7.164;2023-04-28T04:10:01;15.88;;;11.35;;
38053;SDS011;23859;50.672;7.164;2023-04-28T04:12:27;14.90;;;10.88;;
38053;SDS011;23859;50.672;7.164;2023-04-28T04:14:54;21.27;;;12.43;;
38053;SDS011;23859;50.672;7.164;2023-04-28T04:17:20;18.27;;;11.73;;
38053;SDS011;23859;50.672;7.164;2023-04-28T04:19:46;17.95;;;10.77;;
38053;SDS011;23859;50.672;7.164;2023-04-28T04:22:12;14.32;;;10.45;;
38053;SDS011;23859;50.672;7.164;2023-04-28T04:24:38;16.27;;;10.70;;
38053;SDS011;23859;50.672;7.164;2023-04-28T04:27:04;20.20;;;10.68;;
38053;SDS011;23859;50.672;7.164;2023-04-28T04:29:30;15.27;;;10.32;;
38053;SDS011;23859;50.672;7.164;2023-04-28T04:31:56;16.50;;;9.45;;
38053;SDS011;23859;50.672;7.164;2023-04-28T04:34:22;12.32;;;8.13;;
38053;SDS011;23859;50.672;7.164;2023-04-28T04:36:48;14.15;;;8.65;;
38053;SDS011;23859;50.672;7.164;2023-04-28T04:39:14;12.65;;;7.20;;
38053;SDS011;23859;50.672;7.164;2023-04-28T04:41:40;13.13;;;8.15;;
38053;SDS011;23859;50.672;7.164;2023-04-28T04:44:06;21.25;;;7.60;;
38053;SDS011;23859;50.672;7.164;2023-04-28T04:46:32;14.85;;;7.07;;
38053;SDS011;23859;50.672;7.164;2023-04-28T04:48:58;13.95;;;6.60;;
38053;SDS011;23859;50.672;7.164;2023-04-28T04:51:25;9.02;;;6.22;;
38053;SDS011;23859;50.672;7.164;2023-04-28T04:53:52;11.88;;;7.22;;
38053;SDS011;23859;50.672;7.164;2023-04-28T04:56:19;10.10;;;6.93;;
38053;SDS011;23859;50.672;7.164;2023-04-28T04:58:45;10.30;;;7.18;;
38053;SDS011;23859;50.672;7.164;2023-04-28T05:01:11;12.55;;;7.50;;
38053;SDS011;23859;50.672;7.164;2023-04-28T05:03:37;10.23;;;7.45;;
38053;SDS011;23859;50.672;7.164;2023-04-28T05:06:03;13.20;;;7.55;;
38053;SDS011;23859;50.672;7.164;2023-04-28T05:08:30;13.02;;;7.80;;
38053;SDS011;23859;50.672;7.164;2023-04-28T05:10:56;14.27;;;8.13;;
38053;SDS011;23859;50.672;7.164;2023-04-28T05:13:22;13.43;;;8.25;;
38053;SDS011;23859;50.672;7.164;2023-04-28T05:15:48;13.15;;;7.47;;
38053;SDS011;23859;50.672;7.164;2023-04-28T05:18:15;11.95;;;7.05;;
38053;SDS011;23859;50.672;7.164;2023-04-28T05:20:41;12.55;;;7.78;;
38053;SDS011;23859;50.672;7.164;2023-04-28T05:23:07;10.13;;;7.50;;
38053;SDS011;23859;50.672;7.164;2023-04-28T05:25:33;20.23;;;7.93;;
38053;SDS011;23859;50.672;7.164;2023-04-28T05:27:59;11.13;;;6.90;;
38053;SDS011;23859;50.672;7.164;2023-04-28T05:30:31;13.38;;;8.25;;
38053;SDS011;23859;50.672;7.164;2023-04-28T05:32:57;11.07;;;7.82;;
38053;SDS011;23859;50.672;7.164;2023-04-28T05:35:24;14.38;;;7.30;;
38053;SDS011;23859;50.672;7.164;2023-04-28T05:37:50;14.02;;;8.18;;
38053;SDS011;23859;50.672;7.164;2023-04-28T05:40:17;12.45;;;6.97;;
38053;SDS011;23859;50.672;7.164;2023-04-28T05:42:43;13.57;;;7.80;;
38053;SDS011;23859;50.672;7.164;2023-04-28T05:45:09;13.32;;;7.68;;
38053;SDS011;23859;50.672;7.164;2023-04-28T05:47:35;12.45;;;8.70;;
38053;SDS011;23859;50.672;7.164;2023-04-28T05:50:02;13.73;;;8.63;;
38053;SDS011;23859;50.672;7.164;2023-04-28T05:52:28;14.77;;;8.63;;
38053;SDS011;23859;50.672;7.164;2023-04-28T05:54:54;12.82;;;8.80;;
38053;SDS011;23859;50.672;7.164;2023-04-28T05:57:20;13.18;;;8.70;;
38053;SDS011;23859;50.672;7.164;2023-04-28T05:59:46;18.38;;;8.63;;
38053;SDS011;23859;50.672;7.164;2023-04-28T06:02:12;17.98;;;9.10;;
38053;SDS011;23859;50.672;7.164;2023-04-28T06:04:38;15.23;;;8.98;;
38053;SDS011;23859;50.672;7.164;2023-04-28T06:07:04;14.77;;;9.27;;
38053;SDS011;23859;50.672;7.164;2023-04-28T06:09:30;14.23;;;8.80;;
38053;SDS011;23859;50.672;7.164;2023-04-28T06:11:57;16.00;;;9.45;;
38053;SDS011;23859;50.672;7.164;2023-04-28T06:14:23;16.52;;;10.20;;
38053;SDS011;23859;50.672;7.164;2023-04-28T06:16:49;18.02;;;9.38;;
38053;SDS011;23859;50.672;7.164;2023-04-28T06:19:15;16.52;;;9.50;;
38053;SDS011;23859;50.672;7.164;2023-04-28T06:21:43;16.40;;;10.18;;
38053;SDS011;23859;50.672;7.164;2023-04-28T06:24:10;13.35;;;9.10;;
38053;SDS011;23859;50.672;7.164;2023-04-28T06:26:36;15.00;;;8.68;;
38053;SDS011;23859;50.672;7.164;2023-04-28T06:29:02;19.83;;;10.05;;
38053;SDS011;23859;50.672;7.164;2023-04-28T06:31:28;15.98;;;9.75;;
38053;SDS011;23859;50.672;7.164;2023-04-28T06:33:54;17.67;;;8.57;;
38053;SDS011;23859;50.672;7.164;2023-04-28T06:36:20;15.88;;;9.80;;
38053;SDS011;23859;50.672;7.164;2023-04-28T06:38:46;16.05;;;9.57;;
38053;SDS011;23859;50.672;7.164;2023-04-28T06:41:12;16.77;;;8.80;;
38053;SDS011;23859;50.672;7.164;2023-04-28T06:43:38;12.77;;;8.52;;
38053;SDS011;23859;50.672;7.164;2023-04-28T06:46:04;13.73;;;8.20;;
38053;SDS011;23859;50.672;7.164;2023-04-28T06:48:30;13.93;;;7.80;;
38053;SDS011;23859;50.672;7.164;2023-04-28T06:50:57;14.82;;;8.95;;
38053;SDS011;23859;50.672;7.164;2023-04-28T06:53:23;13.15;;;7.93;;
38053;SDS011;23859;50.672;7.164;2023-04-28T06:55:49;12.50;;;8.00;;
38053;SDS011;23859;50.672;7.164;2023-04-28T06:58:15;14.70;;;8.13;;
38053;SDS011;23859;50.672;7.164;2023-04-28T07:00:41;11.50;;;7.93;;
38053;SDS011;23859;50.672;7.164;2023-04-28T07:03:07;13.50;;;8.35;;
38053;SDS011;23859;50.672;7.164;2023-04-28T07:05:33;11.73;;;8.15;;
38053;SDS011;23859;50.672;7.164;2023-04-28T07:08:00;15.40;;;7.32;;
38053;SDS011;23859;50.672;7.164;2023-04-28T07:10:30;10.73;;;8.07;;
38053;SDS011;23859;50.672;7.164;2023-04-28T07:12:56;13.60;;;7.72;;
38053;SDS011;23859;50.672;7.164;2023-04-28T07:15:23;10.77;;;7.38;;
38053;SDS011;23859;50.672;7.164;2023-04-28T07:17:49;13.23;;;8.25;;
38053;SDS011;23859;50.672;7.164;2023-04-28T07:20:15;13.80;;;7.28;;
38053;SDS011;23859;50.672;7.164;2023-04-28T07:22:41;11.68;;;7.85;;
38053;SDS011;23859;50.672;7.164;2023-04-28T07:25:07;16.73;;;7.70;;
38053;SDS011;23859;50.672;7.164;2023-04-28T07:27:34;14.40;;;6.80;;
38053;SDS011;23859;50.672;7.164;2023-04-28T07:30:00;13.32;;;7.03;;
38053;SDS011;23859;50.672;7.164;2023-04-28T07:32:26;11.02;;;8.00;;
38053;SDS011;23859;50.672;7.164;2023-04-28T07:34:53;10.93;;;7.78;;
38053;SDS011;23859;50.672;7.164;2023-04-28T07:37:19;11.77;;;8.48;;
38053;SDS011;23859;50.672;7.164;2023-04-28T07:39:45;9.55;;;6.50;;
38053;SDS011;23859;50.672;7.164;2023-04-28T07:42:11;10.52;;;7.53;;
38053;SDS011;23859;50.672;7.164;2023-04-28T07:44:37;9.38;;;7.22;;
38053;SDS011;23859;50.672;7.164;2023-04-28T07:47:03;15.95;;;7.63;;
38053;SDS011;23859;50.672;7.164;2023-04-28T07:49:29;8.02;;;6.47;;
38053;SDS011;23859;50.672;7.164;2023-04-28T07:51:56;12.05;;;7.43;;
38053;SDS011;23859;50.672;7.164;2023-04-28T07:54:22;10.88;;;6.70;;
38053;SDS011;23859;50.672;7.164;2023-04-28T07:56:48;9.60;;;7.82;;
38053;SDS011;23859;50.672;7.164;2023-04-28T07:59:15;10.75;;;6.78;;
38053;SDS011;23859;50.672;7.164;2023-04-28T08:01:41;13.07;;;7.38;;
38053;SDS011;23859;50.672;7.164;2023-04-28T08:04:07;11.38;;;7.70;;
38053;SDS011;23859;50.672;7.164;2023-04-28T08:06:33;13.82;;;7.30;;
38053;SDS011;23859;50.672;7.164;2023-04-28T08:09:00;8.52;;;6.85;;
38053;SDS011;23859;50.672;7.164;2023-04-28T08:11:26;12.40;;;6.85;;
38053;SDS011;23859;50.672;7.164;2023-04-28T08:13:52;10.40;;;6.65;;
38053;SDS011;23859;50.672;7.164;2023-04-28T08:16:19;13.15;;;6.90;;
38053;SDS011;23859;50.672;7.164;2023-04-28T08:18:46;16.52;;;7.50;;
38053;SDS011;23859;50.672;7.164;2023-04-28T08:21:12;10.40;;;7.03;;
38053;SDS011;23859;50.672;7.164;2023-04-28T08:23:38;11.63;;;7.10;;
38053;SDS011;23859;50.672;7.164;2023-04-28T08:26:04;11.85;;;6.68;;
38053;SDS011;23859;50.672;7.164;2023-04-28T08:28:31;10.45;;;6.95;;
38053;SDS011;23859;50.672;7.164;2023-04-28T08:30:58;11.30;;;6.72;;
38053;SDS011;23859;50.672;7.164;2023-04-28T08:33:24;10.38;;;6.78;;
38053;SDS011;23859;50.672;7.164;2023-04-28T08:35:50;10.48;;;7.13;;
38053;SDS011;23859;50.672;7.164;2023-04-28T08:38:16;15.25;;;7.90;;
38053;SDS011;23859;50.672;7.164;2023-04-28T08:40:43;9.35;;;6.65;;
38053;SDS011;23859;50.672;7.164;2023-04-28T08:43:09;10.98;;;6.93;;
38053;SDS011;23859;50.672;7.164;2023-04-28T08:45:39;11.57;;;6.45;;
38053;SDS011;23859;50.672;7.164;2023-04-28T08:48:15;9.45;;;6.80;;
38053;SDS011;23859;50.672;7.164;2023-04-28T08:50:46;11.95;;;6.70;;
38053;SDS011;23859;50.672;7.164;2023-04-28T08:53:16;9.40;;;7.13;;
38053;SDS011;23859;50.672;7.164;2023-04-28T08:55:50;11.05;;;7.00;;
38053;SDS011;23859;50.672;7.164;2023-04-28T08:58:24;10.02;;;6.70;;
38053;SDS011;23859;50.672;7.164;2023-04-28T09:00:51;13.23;;;6.28;;
38053;SDS011;23859;50.672;7.164;2023-04-28T09:03:18;8.88;;;7.50;;
38053;SDS011;23859;50.672;7.164;2023-04-28T09:05:44;17.00;;;7.57;;
38053;SDS011;23859;50.672;7.164;2023-04-28T09:08:10;12.85;;;8.07;;
38053;SDS011;23859;50.672;7.164;2023-04-28T09:10:37;11.55;;;7.47;;
38053;SDS011;23859;50.672;7.164;2023-04-28T09:13:03;12.77;;;7.45;;
38053;SDS011;23859;50.672;7.164;2023-04-28T09:15:30;12.43;;;7.75;;
38053;SDS011;23859;50.672;7.164;2023-04-28T09:18:04;9.88;;;7.70;;
38053;SDS011;23859;50.672;7.164;2023-04-28T09:20:32;11.05;;;7.13;;
38053;SDS011;23859;50.672;7.164;2023-04-28T09:28:28;12.35;;;7.20;;
38053;SDS011;23859;50.672;7.164;2023-04-28T09:30:55;10.00;;;7.00;;
38053;SDS011;23859;50.672;7.164;2023-04-28T09:33:21;9.90;;;6.95;;
38053;SDS011;23859;50.672;7.164;2023-04-28T09:35:48;12.15;;;6.85;;
38053;SDS011;23859;50.672;7.164;2023-04-28T09:38:14;8.55;;;6.95;;
38053;SDS011;23859;50.672;7.164;2023-04-28T09:40:54;10.48;;;6.10;;
38053;SDS011;23859;50.672;7.164;2023-04-28T09:43:31;7.95;;;5.82;;
38053;SDS011;23859;50.672;7.164;2023-04-28T09:45:59;11.93;;;5.97;;
38053;SDS011;23859;50.672;7.164;2023-04-28T09:48:27;11.43;;;6.53;;
38053;SDS011;23859;50.672;7.164;2023-04-28T09:51:02;10.77;;;6.10;;
38053;SDS011;23859;50.672;7.164;2023-04-28T09:53:30;9.18;;;5.95;;
38053;SDS011;23859;50.672;7.164;2023-04-28T09:55:58;10.02;;;5.20;;
38053;SDS011;23859;50.672;7.164;2023-04-28T09:58:26;8.55;;;5.30;;
38053;SDS011;23859;50.672;7.164;2023-04-28T10:00:56;8.48;;;5.68;;
38053;SDS011;23859;50.672;7.164;2023-04-28T10:03:26;9.88;;;6.70;;
38053;SDS011;23859;50.672;7.164;2023-04-28T10:05:55;9.43;;;6.35;;
38053;SDS011;23859;50.672;7.164;2023-04-28T10:08:22;12.45;;;6.90;;
38053;SDS011;23859;50.672;7.164;2023-04-28T10:10:50;7.90;;;5.70;;
38053;SDS011;23859;50.672;7.164;2023-04-28T10:13:21;12.13;;;6.28;;
38053;SDS011;23859;50.672;7.164;2023-04-28T10:15:49;11.30;;;6.90;;
38053;SDS011;23859;50.672;7.164;2023-04-28T10:18:19;10.90;;;6.15;;
38053;SDS011;23859;50.672;7.164;2023-04-28T10:20:48;10.85;;;6.70;;
38053;SDS011;23859;50.672;7.164;2023-04-28T10:26:13;13.80;;;8.00;;
38053;SDS011;23859;50.672;7.164;2023-04-28T10:28:45;13.65;;;7.03;;
38053;SDS011;23859;50.672;7.164;2023-04-28T10:31:15;12.13;;;7.22;;
38053;SDS011;23859;50.672;7.164;2023-04-28T10:33:45;10.18;;;7.38;;
38053;SDS011;23859;50.672;7.164;2023-04-28T10:36:45;10.13;;;7.72;;
38053;SDS011;23859;50.672;7.164;2023-04-28T10:39:14;11.85;;;7.18;;
38053;SDS011;23859;50.672;7.164;2023-04-28T10:41:40;9.43;;;6.40;;
38053;SDS011;23859;50.672;7.164;2023-04-28T11:00:39;11.27;;;6.80;;
38053;SDS011;23859;50.672;7.164;2023-04-28T11:03:06;10.93;;;7.50;;
38053;SDS011;23859;50.672;7.164;2023-04-28T11:05:33;8.55;;;6.55;;
38053;SDS011;23859;50.672;7.164;2023-04-28T11:11:31;9.50;;;6.82;;
38053;SDS011;23859;50.672;7.164;2023-04-28T11:13:42;10.53;;;6.20;;
38053;SDS011;23859;50.672;7.164;2023-04-28T11:16:11;9.63;;;5.82;;
38053;SDS011;23859;50.672;7.164;2023-04-28T11:18:50;9.60;;;6.20;;
38053;SDS011;23859;50.672;7.164;2023-04-28T11:21:19;7.88;;;5.93;;
38053;SDS011;23859;50.672;7.164;2023-04-28T11:23:46;11.88;;;7.05;;
38053;SDS011;23859;50.672;7.164;2023-04-28T11:26:13;12.10;;;7.60;;
38053;SDS011;23859;50.672;7.164;2023-04-28T11:28:45;9.75;;;6.75;;
38053;SDS011;23859;50.672;7.164;2023-04-28T11:33:48;10.48;;;5.80;;
38053;SDS011;23859;50.672;7.164;2023-04-28T11:36:41;11.93;;;5.13;;
38053;SDS011;23859;50.672;7.164;2023-04-28T11:39:08;8.48;;;5.18;;
38053;SDS011;23859;50.672;7.164;2023-04-28T11:41:36;4.93;;;3.70;;
38053;SDS011;23859;50.672;7.164;2023-04-28T11:44:10;6.93;;;4.25;;
38053;SDS011;23859;50.672;7.164;2023-04-28T11:46:45;4.35;;;3.35;;
38053;SDS011;23859;50.672;7.164;2023-04-28T11:49:17;5.97;;;3.50;;
38053;SDS011;23859;50.672;7.164;2023-04-28T11:51:45;4.43;;;3.20;;
38053;SDS011;23859;50.672;7.164;2023-04-28T11:54:13;4.70;;;3.53;;
38053;SDS011;23859;50.672;7.164;2023-04-28T11:56:44;5.28;;;3.80;;
38053;SDS011;23859;50.672;7.164;2023-04-28T11:59:11;5.50;;;3.50;;
38053;SDS011;23859;50.672;7.164;2023-04-28T12:04:09;8.90;;;4.57;;
38053;SDS011;23859;50.672;7.164;2023-04-28T12:06:36;3.40;;;2.85;;
38053;SDS011;23859;50.672;7.164;2023-04-28T12:09:16;3.20;;;2.90;;
38053;SDS011;23859;50.672;7.164;2023-04-28T12:11:55;3.75;;;2.65;;
38053;SDS011;23859;50.672;7.164;2023-04-28T12:14:26;3.45;;;2.83;;
38053;SDS011;23859;50.672;7.164;2023-04-28T12:16:52;4.25;;;2.97;;
38053;SDS011;23859;50.672;7.164;2023-04-28T12:19:18;2.60;;;2.40;;
38053;SDS011;23859;50.672;7.164;2023-04-28T12:22:01;4.50;;;3.13;;
38053;SDS011;23859;50.672;7.164;2023-04-28T12:24:28;2.85;;;2.03;;
38053;SDS011;23859;50.672;7.164;2023-04-28T12:29:48;4.45;;;2.40;;
38053;SDS011;23859;50.672;7.164;2023-04-28T12:32:15;2.60;;;2.28;;
38053;SDS011;23859;50.672;7.164;2023-04-28T12:34:43;4.20;;;2.03;;
38053;SDS011;23859;50.672;7.164;2023-04-28T12:37:10;2.00;;;1.80;;
38053;SDS011;23859;50.672;7.164;2023-04-28T12:39:38;2.60;;;2.10;;
38053;SDS011;23859;50.672;7.164;2023-04-28T12:42:05;4.07;;;2.03;;
38053;SDS011;23859;50.672;7.164;2023-04-28T12:44:32;2.00;;;1.80;;
38053;SDS011;23859;50.672;7.164;2023-04-28T12:47:05;2.63;;;1.98;;
38053;SDS011;23859;50.672;7.164;2023-04-28T12:49:33;2.15;;;1.90;;
38053;SDS011;23859;50.672;7.164;2023-04-28T12:51:59;4.60;;;2.30;;
38053;SDS011;23859;50.672;7.164;2023-04-28T12:54:26;2.58;;;2.30;;
38053;SDS011;23859;50.672;7.164;2023-04-28T12:56:52;3.15;;;1.80;;
38053;SDS011;23859;50.672;7.164;2023-04-28T12:59:18;2.53;;;1.80;;
38053;SDS011;23859;50.672;7.164;2023-04-28T13:01:45;2.78;;;1.90;;
38053;SDS011;23859;50.672;7.164;2023-04-28T13:04:11;3.00;;;1.90;;
38053;SDS011;23859;50.672;7.164;2023-04-28T13:06:38;2.08;;;1.90;;
38053;SDS011;23859;50.672;7.164;2023-04-28T13:09:08;3.72;;;1.70;;
38053;SDS011;23859;50.672;7.164;2023-04-28T13:11:41;2.30;;;2.10;;
38053;SDS011;23859;50.672;7.164;2023-04-28T13:14:07;2.33;;;2.00;;
38053;SDS011;23859;50.672;7.164;2023-04-28T13:16:34;3.08;;;2.05;;
38053;SDS011;23859;50.672;7.164;2023-04-28T13:19:01;2.00;;;1.80;;
38053;SDS011;23859;50.672;7.164;2023-04-28T13:21:28;4.32;;;2.72;;
38053;SDS011;23859;50.672;7.164;2023-04-28T13:23:54;2.63;;;1.98;;
38053;SDS011;23859;50.672;7.164;2023-04-28T13:26:21;2.00;;;1.90;;
38053;SDS011;23859;50.672;7.164;2023-04-28T13:28:48;3.08;;;2.45;;
38053;SDS011;23859;50.672;7.164;2023-04-28T13:31:15;4.53;;;2.17;;
38053;SDS011;23859;50.672;7.164;2023-04-28T13:33:42;3.00;;;1.95;;
38053;SDS011;23859;50.672;7.164;2023-04-28T13:36:08;2.58;;;2.00;;
38053;SDS011;23859;50.672;7.164;2023-04-28T13:38:34;7.00;;;2.00;;
38053;SDS011;23859;50.672;7.164;2023-04-28T13:41:01;1.73;;;1.60;;
38053;SDS011;23859;50.672;7.164;2023-04-28T13:43:27;2.10;;;1.38;;
38053;SDS011;23859;50.672;7.164;2023-04-28T13:45:55;2.97;;;1.80;;
38053;SDS011;23859;50.672;7.164;2023-04-28T13:48:21;2.20;;;1.88;;
38053;SDS011;23859;50.672;7.164;2023-04-28T13:50:48;5.68;;;2.40;;
38053;SDS011;23859;50.672;7.164;2023-04-28T13:53:14;4.53;;;2.30;;
38053;SDS011;23859;50.672;7.164;2023-04-28T13:55:41;2.75;;;2.38;;
38053;SDS011;23859;50.672;7.164;2023-04-28T13:58:07;4.75;;;2.72;;
38053;SDS011;23859;50.672;7.164;2023-04-28T14:00:33;5.13;;;3.80;;
38053;SDS011;23859;50.672;7.164;2023-04-28T14:03:01;5.13;;;3.00;;
38053;SDS011;23859;50.672;7.164;2023-04-28T14:05:27;3.05;;;2.28;;
38053;SDS011;23859;50.672;7.164;2023-04-28T14:07:53;3.08;;;2.15;;
38053;SDS011;23859;50.672;7.164;2023-04-28T14:10:20;2.67;;;1.80;;
38053;SDS011;23859;50.672;7.164;2023-04-28T14:12:47;2.58;;;1.88;;
38053;SDS011;23859;50.672;7.164;2023-04-28T14:15:13;2.17;;;1.50;;
38053;SDS011;23859;50.672;7.164;2023-04-28T14:17:40;2.22;;;1.73;;
38053;SDS011;23859;50.672;7.164;2023-04-28T14:20:07;1.80;;;1.58;;
38053;SDS011;23859;50.672;7.164;2023-04-28T14:22:35;3.72;;;2.05;;
38053;SDS011;23859;50.672;7.164;2023-04-28T14:25:02;2.33;;;2.05;;
38053;SDS011;23859;50.672;7.164;2023-04-28T14:27:28;4.30;;;1.90;;
38053;SDS011;23859;50.672;7.164;2023-04-28T14:29:54;3.58;;;2.42;;
38053;SDS011;23859;50.672;7.164;2023-04-28T14:32:20;2.17;;;1.70;;
38053;SDS011;23859;50.672;7.164;2023-04-28T14:34:47;5.63;;;1.90;;
38053;SDS011;23859;50.672;7.164;2023-04-28T14:37:15;2.15;;;1.95;;
38053;SDS011;23859;50.672;7.164;2023-04-28T14:39:44;2.60;;;1.50;;
38053;SDS011;23859;50.672;7.164;2023-04-28T14:42:10;2.03;;;1.80;;
38053;SDS011;23859;50.672;7.164;2023-04-28T14:44:37;2.45;;;2.25;;
38053;SDS011;23859;50.672;7.164;2023-04-28T14:47:03;1.90;;;1.80;;
38053;SDS011;23859;50.672;7.164;2023-04-28T14:49:29;3.20;;;1.98;;
38053;SDS011;23859;50.672;7.164;2023-04-28T14:51:55;4.07;;;2.00;;
38053;SDS011;23859;50.672;7.164;2023-04-28T14:54:23;2.03;;;1.70;;
38053;SDS011;23859;50.672;7.164;2023-04-28T14:56:49;2.58;;;2.10;;
38053;SDS011;23859;50.672;7.164;2023-04-28T14:59:15;2.83;;;2.53;;
38053;SDS011;23859;50.672;7.164;2023-04-28T15:01:42;3.17;;;1.98;;
38053;SDS011;23859;50.672;7.164;2023-04-28T15:04:08;3.95;;;2.17;;
38053;SDS011;23859;50.672;7.164;2023-04-28T15:06:35;3.40;;;2.58;;
38053;SDS011;23859;50.672;7.164;2023-04-28T15:09:01;3.80;;;2.50;;
38053;SDS011;23859;50.672;7.164;2023-04-28T15:11:27;3.08;;;2.75;;
38053;SDS011;23859;50.672;7.164;2023-04-28T15:13:53;3.55;;;2.08;;